Time;durP1;ratioP1;P1;durP2;ratioP2;P2;SDS_P1;SDS_P2;PMS_P1;PMS_P2;Temp;Humidity;BMP_temperature;BMP_pressure;BME280_temperature;BME280_humidity;BME280_pressure;Samples;Min_cycle;Max_cycle;Signal;HPM_P1;HPM_P2
2021/10/01 00:02:01;;;;;;;0.20;0.20;;;10.00;99.90;;;;;;5014844;28;20026;-80
2021/10/01 00:04:27;;;;;;;0.20;0.20;;;9.90;99.90;;;;;;4997437;28;20033;-77
2021/10/01 00:06:53;;;;;;;0.20;0.20;;;9.90;99.90;;;;;;4981321;28;20057;-77
2021/10/01 00:09:19;;;;;;;0.20;0.20;;;9.90;99.90;;;;;;5014882;28;20072;-78
2021/10/01 00:11:54;;;;;;;0.20;0.20;;;10.10;99.90;;;;;;4980814;28;20066;-77
2021/10/01 00:14:25;;;;;;;0.20;0.20;;;10.00;99.90;;;;;;4997538;28;20025;-77
2021/10/01 00:16:53;;;;;;;0.20;0.20;;;10.00;99.90;;;;;;4997173;28;20079;-77
2021/10/01 00:19:20;;;;;;;0.20;0.20;;;9.80;99.90;;;;;;4981274;28;20269;-78
2021/10/01 00:21:46;;;;;;;0.20;0.20;;;9.90;99.90;;;;;;4997021;28;20436;-77
2021/10/01 00:24:11;;;;;;;0.20;0.20;;;10.10;99.90;;;;;;5014499;28;20030;-77
2021/10/01 00:26:40;;;;;;;0.20;0.20;;;10.20;99.90;;;;;;4997001;28;20030;-77
2021/10/01 00:29:07;;;;;;;0.20;0.20;;;10.10;99.90;;;;;;4996620;28;20032;-79
2021/10/01 00:31:33;;;;;;;0.40;0.40;;;9.90;99.90;;;;;;4980720;28;20041;-77
2021/10/01 00:34:01;;;;;;;0.20;0.20;;;9.70;99.90;;;;;;5014369;28;20022;-77
2021/10/01 00:36:28;;;;;;;0.10;0.10;;;9.50;99.90;;;;;;4980455;28;20026;-77
2021/10/01 00:38:55;;;;;;;0.20;0.20;;;9.50;99.90;;;;;;5014232;28;20022;-77
2021/10/01 00:41:20;;;;;;;0.30;0.30;;;9.60;99.90;;;;;;4980558;28;20104;-77
2021/10/01 00:43:46;;;;;;;0.20;0.20;;;9.50;99.90;;;;;;5013923;28;20049;-79
2021/10/01 00:46:12;;;;;;;0.20;0.20;;;9.40;99.90;;;;;;4996375;28;20025;-77
2021/10/01 00:48:38;;;;;;;1.13;0.60;;;9.60;99.90;;;;;;4996046;28;20026;-77
2021/10/01 00:51:06;;;;;;;0.20;0.20;;;9.60;99.90;;;;;;4996275;28;20045;-77
2021/10/01 00:53:33;;;;;;;0.20;0.20;;;9.50;99.90;;;;;;4996395;28;20025;-77
2021/10/01 00:55:59;;;;;;;0.20;0.20;;;9.50;99.90;;;;;;5013969;28;20029;-77
2021/10/01 00:58:25;;;;;;;0.20;0.20;;;9.50;99.90;;;;;;4996460;28;20026;-78
2021/10/01 01:01:08;;;;;;;0.25;0.25;;;9.90;99.90;;;;;;4996182;28;20037;-78
2021/10/01 01:03:35;;;;;;;0.20;0.20;;;9.90;99.90;;;;;;5014059;28;20029;-77
2021/10/01 01:06:10;;;;;;;0.20;0.20;;;9.90;99.90;;;;;;4996233;28;20192;-77
2021/10/01 01:09:02;;;;;;;0.20;0.20;;;9.80;99.90;;;;;;4995606;28;20033;-77
2021/10/01 01:11:52;;;;;;;0.20;0.20;;;9.70;99.90;;;;;;4951235;28;20030;-77
2021/10/01 01:14:25;;;;;;;0.30;0.30;;;9.80;99.90;;;;;;4996196;28;20045;-77
2021/10/01 01:16:55;;;;;;;0.22;0.22;;;9.80;99.90;;;;;;5013774;28;20430;-78
2021/10/01 01:19:43;;;;;;;0.35;0.35;;;9.70;99.90;;;;;;4995847;28;20613;-77
2021/10/01 01:22:29;;;;;;;0.30;0.30;;;9.60;99.90;;;;;;4996115;28;20026;-77
2021/10/01 01:25:22;;;;;;;0.20;0.20;;;9.70;99.90;;;;;;5013439;28;20030;-77
2021/10/01 01:27:57;;;;;;;0.20;0.20;;;9.80;99.90;;;;;;4996188;28;20030;-77
2021/10/01 01:30:24;;;;;;;0.20;0.20;;;9.90;99.90;;;;;;4996168;28;20025;-77
2021/10/01 01:32:57;;;;;;;0.20;0.20;;;9.70;99.90;;;;;;4996190;28;20018;-78
2021/10/01 01:35:26;;;;;;;0.15;0.15;;;9.80;99.90;;;;;;4996034;28;20036;-77
2021/10/01 01:37:57;;;;;;;0.10;0.10;;;9.80;99.90;;;;;;4979885;28;20091;-79
2021/10/01 01:40:27;;;;;;;0.27;0.27;;;9.60;99.90;;;;;;5013595;28;20026;-77
2021/10/01 01:42:56;;;;;;;0.50;0.50;;;9.40;99.90;;;;;;5013311;28;20068;-77
2021/10/01 01:45:23;;;;;;;0.20;0.20;;;9.20;99.90;;;;;;4997564;28;20083;-80
2021/10/01 01:47:51;;;;;;;0.30;0.30;;;8.90;99.90;;;;;;4980783;28;20030;-81
2021/10/01 01:50:18;;;;;;;0.20;0.20;;;8.90;99.90;;;;;;5014032;28;20504;-78
2021/10/01 01:52:44;;;;;;;0.20;0.20;;;9.00;99.90;;;;;;4979499;28;20079;-77
2021/10/01 01:55:12;;;;;;;0.52;0.30;;;9.10;99.90;;;;;;5013162;28;20079;-78
2021/10/01 01:57:40;;;;;;;0.30;0.30;;;9.10;99.90;;;;;;4995220;28;20029;-77
2021/10/01 02:00:08;;;;;;;0.20;0.20;;;9.00;99.90;;;;;;4995591;28;20428;-77
2021/10/01 02:02:35;;;;;;;0.20;0.20;;;8.90;99.90;;;;;;5013407;28;20022;-77
2021/10/01 02:05:02;;;;;;;0.30;0.30;;;8.80;99.90;;;;;;4995364;28;20033;-79
2021/10/01 02:07:29;;;;;;;0.20;0.20;;;8.90;99.90;;;;;;4995391;28;20033;-77
2021/10/01 02:09:57;;;;;;;0.30;0.30;;;9.10;99.90;;;;;;5013339;28;20101;-77
2021/10/01 02:12:25;;;;;;;0.25;0.25;;;9.20;99.90;;;;;;5013147;28;20032;-78
2021/10/01 02:14:53;;;;;;;0.50;0.50;;;9.20;99.90;;;;;;4979124;28;20030;-77
2021/10/01 02:17:20;;;;;;;0.20;0.20;;;9.20;99.90;;;;;;4995018;28;20113;-78
2021/10/01 02:19:47;;;;;;;0.68;0.68;;;9.10;99.90;;;;;;5012914;28;20022;-77
2021/10/01 02:22:18;;;;;;;0.20;0.20;;;9.10;99.90;;;;;;5015376;28;20057;-77
2021/10/01 02:24:44;;;;;;;0.20;0.20;;;9.00;99.90;;;;;;4999201;28;20076;-78
2021/10/01 02:27:25;;;;;;;0.30;0.30;;;8.90;99.90;;;;;;4999250;28;20546;-78
2021/10/01 02:30:10;;;;;;;0.20;0.20;;;8.60;99.90;;;;;;5017877;28;20455;-80
2021/10/01 02:32:51;;;;;;;0.20;0.20;;;8.50;99.90;;;;;;4999945;28;20030;-82
2021/10/01 02:35:17;;;;;;;0.20;0.20;;;8.80;99.90;;;;;;5017162;28;20018;-80
2021/10/01 02:37:43;;;;;;;0.20;0.20;;;9.00;99.90;;;;;;5016563;28;20080;-77
2021/10/01 02:40:09;;;;;;;0.20;0.20;;;9.20;99.90;;;;;;4998679;28;20030;-77
2021/10/01 02:42:36;;;;;;;0.20;0.20;;;9.30;99.90;;;;;;4999165;28;20489;-78
2021/10/01 02:45:03;;;;;;;0.20;0.20;;;9.30;99.90;;;;;;5016414;28;20026;-78
2021/10/01 02:47:32;;;;;;;0.20;0.20;;;9.30;99.90;;;;;;5016374;28;20022;-77
2021/10/01 02:50:00;;;;;;;0.20;0.20;;;9.30;99.90;;;;;;4998715;28;20401;-77
2021/10/01 02:52:57;;;;;;;0.10;0.10;;;9.40;99.90;;;;;;4998816;28;20078;-77
2021/10/01 02:55:54;;;;;;;0.20;0.20;;;9.50;99.90;;;;;;4998907;28;20025;-77
2021/10/01 02:58:25;;;;;;;0.20;0.20;;;9.70;99.90;;;;;;4998778;28;20034;-79
2021/10/01 03:00:52;;;;;;;0.10;0.10;;;9.80;99.90;;;;;;4982609;28;20089;-79
2021/10/01 03:03:22;;;;;;;0.20;0.20;;;9.80;99.90;;;;;;4998709;28;20036;-80
2021/10/01 03:05:51;;;;;;;0.10;0.10;;;10.10;99.90;;;;;;4982553;28;20397;-79
2021/10/01 03:08:19;;;;;;;0.20;0.20;;;10.10;99.90;;;;;;5016049;28;20033;-78
2021/10/01 03:10:48;;;;;;;0.20;0.20;;;10.10;99.90;;;;;;5016194;28;20022;-79
2021/10/01 03:13:18;;;;;;;0.20;0.20;;;10.20;99.90;;;;;;5016023;28;20045;-80
2021/10/01 03:15:45;;;;;;;0.20;0.20;;;10.20;99.90;;;;;;4998558;28;20129;-78
2021/10/01 03:18:11;;;;;;;0.20;0.20;;;10.30;99.90;;;;;;4998163;28;20037;-77
2021/10/01 03:20:37;;;;;;;0.17;0.17;;;10.20;99.90;;;;;;4998129;28;20034;-78
2021/10/01 03:23:04;;;;;;;0.20;0.20;;;10.00;99.90;;;;;;4982185;28;20026;-77
2021/10/01 03:25:30;;;;;;;0.30;0.30;;;9.90;99.90;;;;;;5015912;28;20026;-77
2021/10/01 03:27:56;;;;;;;0.20;0.20;;;9.90;99.90;;;;;;4997880;28;20056;-77
2021/10/01 03:30:22;;;;;;;0.20;0.20;;;9.90;99.90;;;;;;5015781;28;20030;-77
2021/10/01 03:32:48;;;;;;;0.20;0.20;;;9.80;99.90;;;;;;5015143;28;20386;-77
2021/10/01 03:35:15;;;;;;;0.82;0.82;;;9.90;99.90;;;;;;4981742;28;20025;-78
2021/10/01 03:37:43;;;;;;;0.20;0.20;;;9.90;99.90;;;;;;5015398;28;20564;-77
2021/10/01 03:40:11;;;;;;;0.20;0.20;;;9.80;99.90;;;;;;4981463;28;20033;-78
2021/10/01 03:42:39;;;;;;;0.20;0.20;;;9.80;99.90;;;;;;5015353;28;20477;-78
2021/10/01 03:45:07;;;;;;;0.25;0.25;;;9.90;99.90;;;;;;5015097;28;20124;-77
2021/10/01 03:47:33;;;;;;;0.20;0.20;;;10.00;99.90;;;;;;5015339;28;20505;-78
2021/10/01 03:49:58;;;;;;;0.20;0.20;;;10.10;99.90;;;;;;4990827;23;20174;-74
2021/10/01 03:52:24;;;;;;;0.20;0.20;;;10.20;99.90;;;;;;4994275;28;20030;-75
2021/10/01 03:54:51;;;;;;;0.20;0.20;;;10.30;99.90;;;;;;4994589;28;20037;-74
2021/10/01 03:57:17;;;;;;;0.20;0.20;;;10.00;99.90;;;;;;4994524;28;20554;-74
2021/10/01 03:59:43;;;;;;;0.20;0.20;;;9.90;99.90;;;;;;4994645;28;20410;-74
2021/10/01 04:02:09;;;;;;;0.52;0.52;;;9.80;99.90;;;;;;4976929;28;20026;-74
2021/10/01 04:04:35;;;;;;;0.20;0.20;;;9.90;99.90;;;;;;4994669;28;20109;-74
2021/10/01 04:07:01;;;;;;;0.20;0.20;;;9.90;99.90;;;;;;4994130;28;20118;-74
2021/10/01 04:09:28;;;;;;;0.20;0.20;;;9.90;99.90;;;;;;4976870;28;20541;-74
2021/10/01 04:11:55;;;;;;;0.20;0.20;;;9.90;99.90;;;;;;4994394;28;20076;-74
2021/10/01 04:14:21;;;;;;;5.90;2.17;;;9.60;99.90;;;;;;4994184;28;20122;-74
2021/10/01 04:16:48;;;;;;;0.20;0.20;;;9.30;99.90;;;;;;4976826;28;20030;-74
2021/10/01 04:19:14;;;;;;;0.20;0.20;;;9.10;99.90;;;;;;4976626;28;20026;-74
2021/10/01 04:21:40;;;;;;;0.20;0.20;;;9.00;99.90;;;;;;4960516;28;20155;-74
2021/10/01 04:24:06;;;;;;;0.52;0.52;;;9.00;99.90;;;;;;4976622;28;20054;-74
2021/10/01 04:26:31;;;;;;;0.20;0.20;;;9.00;99.90;;;;;;4993838;28;20101;-74
2021/10/01 04:28:57;;;;;;;0.30;0.30;;;9.00;99.90;;;;;;4976460;28;20022;-74
2021/10/01 04:31:23;;;;;;;0.25;0.25;;;9.10;99.90;;;;;;4994147;28;20429;-74
2021/10/01 04:33:49;;;;;;;0.30;0.30;;;9.20;99.90;;;;;;4993849;28;20023;-74
2021/10/01 04:36:15;;;;;;;0.20;0.20;;;9.30;99.90;;;;;;4993682;28;20443;-74
2021/10/01 04:38:41;;;;;;;0.20;0.20;;;9.40;99.90;;;;;;4993640;28;20034;-74
2021/10/01 04:41:07;;;;;;;0.30;0.30;;;9.60;99.90;;;;;;4993739;28;20390;-74
2021/10/01 04:43:33;;;;;;;0.20;0.20;;;9.60;99.90;;;;;;4975429;28;20109;-74
2021/10/01 04:45:59;;;;;;;0.20;0.20;;;9.70;99.90;;;;;;4993333;28;20026;-74
2021/10/01 04:48:25;;;;;;;0.20;0.20;;;9.80;99.90;;;;;;4993477;28;20030;-74
2021/10/01 04:50:51;;;;;;;0.20;0.20;;;9.90;99.90;;;;;;4959906;28;20084;-74
2021/10/01 04:53:16;;;;;;;0.20;0.20;;;10.20;99.90;;;;;;4993548;28;20034;-74
2021/10/01 04:55:46;;;;;;;0.20;0.20;;;10.30;99.90;;;;;;4993292;28;20038;-74
2021/10/01 04:58:12;;;;;;;0.20;0.20;;;10.40;99.90;;;;;;4993102;28;20058;-74
2021/10/01 05:00:37;;;;;;;0.82;0.82;;;10.20;99.90;;;;;;4993056;28;20053;-74
2021/10/01 05:03:03;;;;;;;0.10;0.10;;;10.10;99.90;;;;;;4993516;28;20037;-74
2021/10/01 05:05:29;;;;;;;0.52;0.52;;;9.90;99.90;;;;;;4974894;28;20030;-74
2021/10/01 05:07:55;;;;;;;0.20;0.20;;;9.80;99.90;;;;;;4991146;28;20030;-75
2021/10/01 05:10:20;;;;;;;0.20;0.20;;;9.80;99.90;;;;;;4982537;28;20033;-75
2021/10/01 05:12:46;;;;;;;0.20;0.20;;;9.80;99.90;;;;;;4975452;28;20418;-74
2021/10/01 05:15:13;;;;;;;0.20;0.20;;;9.70;99.90;;;;;;4962116;28;20022;-74
2021/10/01 05:17:40;;;;;;;0.20;0.20;;;9.60;99.90;;;;;;4973571;28;20118;-74
2021/10/01 05:20:08;;;;;;;0.28;0.28;;;9.60;99.90;;;;;;4960010;28;20056;-74
2021/10/01 05:22:34;;;;;;;1.10;1.05;;;9.40;99.90;;;;;;4978784;28;20029;-74
2021/10/01 05:25:01;;;;;;;0.20;0.20;;;9.30;99.90;;;;;;4992846;28;20482;-75
2021/10/01 05:27:29;;;;;;;0.10;0.10;;;9.30;99.90;;;;;;4992742;28;20378;-74
2021/10/01 05:29:55;;;;;;;0.20;0.20;;;9.20;99.90;;;;;;4977079;28;20058;-75
2021/10/01 05:32:21;;;;;;;1.10;1.05;;;9.20;99.90;;;;;;4993292;28;20022;-75
2021/10/01 05:34:47;;;;;;;0.20;0.20;;;9.20;99.90;;;;;;4975254;28;20026;-74
2021/10/01 05:37:13;;;;;;;0.20;0.20;;;9.10;99.90;;;;;;4992684;28;20391;-74
2021/10/01 05:39:39;;;;;;;0.20;0.20;;;9.00;99.90;;;;;;4970525;28;20112;-74
2021/10/01 05:42:05;;;;;;;0.20;0.20;;;9.20;99.90;;;;;;4955469;28;20031;-73
2021/10/01 05:44:31;;;;;;;0.20;0.20;;;9.30;99.90;;;;;;4955589;28;20104;-74
2021/10/01 05:47:01;;;;;;;0.20;0.20;;;9.40;99.90;;;;;;4955762;28;20041;-75
2021/10/01 05:49:32;;;;;;;0.20;0.20;;;9.40;99.90;;;;;;4973150;28;20494;-74
2021/10/01 05:52:15;;;;;;;0.20;0.20;;;9.50;99.90;;;;;;4955788;28;20112;-74
2021/10/01 05:54:41;;;;;;;0.25;0.25;;;9.50;99.90;;;;;;4972860;28;20026;-74
2021/10/01 05:57:09;;;;;;;0.20;0.20;;;9.80;99.90;;;;;;4955424;28;20497;-75
2021/10/01 05:59:37;;;;;;;0.20;0.20;;;10.00;99.90;;;;;;4972977;28;20023;-74
2021/10/01 06:02:03;;;;;;;0.20;0.20;;;10.20;99.90;;;;;;4955589;28;20033;-75
2021/10/01 06:04:30;;;;;;;0.20;0.20;;;10.30;99.90;;;;;;4978558;28;20031;-74
2021/10/01 06:06:56;;;;;;;0.20;0.20;;;10.40;99.90;;;;;;4970313;28;20471;-74
2021/10/01 06:09:23;;;;;;;0.20;0.20;;;10.10;99.90;;;;;;4958835;28;20057;-74
2021/10/01 06:11:49;;;;;;;0.20;0.20;;;10.00;99.90;;;;;;4989978;28;20307;-74
2021/10/01 06:14:22;;;;;;;0.20;0.20;;;9.90;99.90;;;;;;4955613;28;20029;-74
2021/10/01 06:16:49;;;;;;;0.20;0.20;;;9.90;99.90;;;;;;4955630;28;20029;-74
2021/10/01 06:19:15;;;;;;;0.20;0.20;;;10.00;99.90;;;;;;4955604;28;20031;-74
2021/10/01 06:21:41;;;;;;;0.30;0.30;;;10.00;99.90;;;;;;4986044;28;20037;-75
2021/10/01 06:24:06;;;;;;;0.20;0.20;;;10.30;99.90;;;;;;4958478;28;20026;-74
2021/10/01 06:26:32;;;;;;;2.42;1.08;;;10.40;99.90;;;;;;4974396;28;20023;-75
2021/10/01 06:28:58;;;;;;;0.25;0.25;;;10.30;99.90;;;;;;4992030;28;20030;-74
2021/10/01 06:31:24;;;;;;;0.20;0.20;;;10.10;99.90;;;;;;4992044;28;20019;-74
2021/10/01 06:33:49;;;;;;;0.45;0.45;;;10.00;99.90;;;;;;4992139;28;20033;-74
2021/10/01 06:36:19;;;;;;;0.30;0.30;;;10.10;99.90;;;;;;4992079;28;20495;-74
2021/10/01 06:38:46;;;;;;;0.20;0.20;;;10.20;99.90;;;;;;4961386;28;20517;-74
2021/10/01 06:41:13;;;;;;;0.20;0.20;;;10.40;99.90;;;;;;4972472;28;20402;-74
2021/10/01 06:43:40;;;;;;;0.22;0.22;;;10.40;99.90;;;;;;4957438;28;20022;-79
2021/10/01 06:46:14;;;;;;;0.20;0.20;;;10.70;99.90;;;;;;4978917;28;20026;-79
2021/10/01 07:36:10;;;;;;;0.20;0.20;;;12.90;99.90;;;;;;5014167;28;20505;-76
2021/10/01 08:20:04;;;;;;;0.10;0.10;;;14.20;99.90;;;;;;4993229;28;20363;-75
2021/10/01 08:22:30;;;;;;;0.73;0.73;;;14.20;99.90;;;;;;4976301;28;20028;-76
2021/10/01 08:24:56;;;;;;;0.20;0.20;;;14.10;99.90;;;;;;4959420;28;20109;-76
2021/10/01 08:27:25;;;;;;;0.10;0.10;;;14.20;99.90;;;;;;4992828;28;20398;-76
2021/10/01 08:29:51;;;;;;;0.20;0.20;;;14.20;99.90;;;;;;4975682;28;20542;-76
2021/10/01 08:32:17;;;;;;;0.25;0.25;;;14.30;99.90;;;;;;4992920;28;20081;-76
2021/10/01 08:34:45;;;;;;;1.20;1.20;;;14.40;99.90;;;;;;4959312;28;20478;-76
2021/10/01 08:37:13;;;;;;;0.10;0.10;;;14.60;99.90;;;;;;4993264;28;20486;-76
2021/10/01 08:39:40;;;;;;;0.10;0.10;;;14.60;99.90;;;;;;4993162;28;20026;-76
2021/10/01 08:42:06;;;;;;;0.20;0.20;;;14.80;99.90;;;;;;4992936;28;20041;-76
2021/10/01 08:44:33;;;;;;;0.10;0.10;;;14.90;99.90;;;;;;4992816;28;20034;-76
2021/10/01 08:47:02;;;;;;;0.30;0.30;;;14.90;99.90;;;;;;4992764;28;20497;-76
2021/10/01 08:49:30;;;;;;;0.10;0.10;;;15.10;99.90;;;;;;4975362;28;20143;-76
2021/10/01 08:51:57;;;;;;;0.10;0.10;;;15.20;99.90;;;;;;4992987;28;20058;-76
2021/10/01 08:54:24;;;;;;;0.15;0.15;;;15.20;99.90;;;;;;4992965;28;20041;-75
2021/10/01 08:56:50;;;;;;;0.10;0.10;;;15.20;99.90;;;;;;4992877;28;20026;-76
2021/10/01 08:59:16;;;;;;;0.20;0.20;;;15.50;99.90;;;;;;4992443;28;20395;-76
2021/10/01 09:01:42;;;;;;;0.10;0.10;;;15.90;99.90;;;;;;4975172;28;20113;-73
2021/10/01 09:04:10;;;;;;;0.25;0.25;;;16.30;99.90;;;;;;4975247;28;20126;-73
2021/10/01 09:06:36;;;;;;;0.15;0.15;;;16.70;99.90;;;;;;4975194;28;20397;-73
2021/10/01 09:09:08;;;;;;;0.10;0.10;;;17.00;99.90;;;;;;4992613;28;20106;-73
2021/10/01 09:11:45;;;;;;;0.10;0.10;;;17.20;99.60;;;;;;4975054;28;20050;-72
2021/10/01 09:14:13;;;;;;;0.10;0.10;;;17.40;96.80;;;;;;4992731;28;20018;-72
2021/10/01 09:16:41;;;;;;;0.65;0.40;;;17.80;95.70;;;;;;4975259;28;20026;-74
2021/10/01 09:19:08;;;;;;;0.60;0.60;;;18.00;93.80;;;;;;4975177;28;20490;-72
2021/10/01 09:21:48;;;;;;;0.20;0.20;;;18.10;92.30;;;;;;4992709;28;20027;-72
2021/10/01 09:24:24;;;;;;;0.13;0.13;;;18.30;91.00;;;;;;4975109;28;20528;-72
2021/10/01 09:26:58;;;;;;;0.10;0.10;;;18.70;89.20;;;;;;4974974;28;20027;-72
2021/10/01 09:29:31;;;;;;;1.08;0.75;;;19.00;86.10;;;;;;4974761;28;20033;-72
2021/10/01 09:31:58;;;;;;;0.10;0.10;;;18.70;83.50;;;;;;4992133;28;20071;-74
2021/10/01 09:34:24;;;;;;;0.10;0.10;;;19.10;81.80;;;;;;4975001;28;20026;-74
2021/10/01 09:37:04;;;;;;;0.10;0.10;;;19.50;79.90;;;;;;4991092;28;20541;-74
2021/10/01 09:39:36;;;;;;;0.10;0.10;;;20.10;78.20;;;;;;4967791;28;20073;-74
2021/10/01 09:42:15;;;;;;;0.10;0.10;;;20.60;73.80;;;;;;4947956;28;20023;-74
2021/10/01 09:44:51;;;;;;;0.10;0.10;;;20.60;73.40;;;;;;4990425;28;20030;-74
2021/10/01 09:47:23;;;;;;;0.10;0.10;;;21.00;71.60;;;;;;4986753;28;20018;-74
2021/10/01 09:50:14;;;;;;;0.10;0.10;;;20.90;71.10;;;;;;4974721;28;20053;-74
2021/10/01 09:52:45;;;;;;;0.10;0.10;;;21.00;70.30;;;;;;5006725;23;20468;-91
2021/10/01 09:55:15;;;;;;;0.10;0.10;;;21.10;70.20;;;;;;4956538;28;20054;-92
2021/10/01 09:57:58;;;;;;;0.17;0.17;;;21.50;68.60;;;;;;4944389;28;20480;-94
2021/10/01 10:00:40;;;;;;;0.10;0.10;;;21.80;67.40;;;;;;4953633;28;20022;-91
2021/10/01 10:03:07;;;;;;;0.10;0.10;;;22.00;65.50;;;;;;5012624;28;20030;-93
2021/10/01 10:06:14;;;;;;;0.10;0.10;;;22.30;64.70;;;;;;5013991;28;20021;-94
2021/10/01 10:08:43;;;;;;;0.00;0.00;;;22.50;64.00;;;;;;5010735;28;20065;-93
2021/10/01 10:11:18;;;;;;;0.10;0.10;;;22.60;62.90;;;;;;5010258;28;20029;-93
2021/10/01 10:13:50;;;;;;;0.10;0.10;;;23.00;61.20;;;;;;5015049;28;20077;-94
2021/10/01 10:16:19;;;;;;;0.10;0.10;;;23.30;59.90;;;;;;5014450;28;20036;-94
2021/10/01 10:18:48;;;;;;;0.10;0.10;;;23.20;59.60;;;;;;5010389;28;20037;-93
2021/10/01 10:21:15;;;;;;;0.10;0.10;;;23.40;59.40;;;;;;4996897;28;20015;-93
2021/10/01 10:23:51;;;;;;;0.10;0.10;;;23.60;58.60;;;;;;4976055;28;20022;-93
2021/10/01 10:26:20;;;;;;;0.00;0.00;;;23.90;58.60;;;;;;4981174;28;20034;-94
2021/10/01 10:28:48;;;;;;;0.08;0.08;;;24.10;57.00;;;;;;4989695;28;20045;-94
2021/10/01 10:31:16;;;;;;;0.00;0.00;;;24.30;56.60;;;;;;4986615;28;20025;-93
2021/10/01 10:33:52;;;;;;;0.00;0.00;;;24.20;56.20;;;;;;4991330;28;20045;-93
2021/10/01 10:36:32;;;;;;;0.10;0.10;;;24.20;56.50;;;;;;4991870;28;20054;-94
2021/10/01 10:39:33;;;;;;;0.00;0.00;;;24.10;56.40;;;;;;4980384;28;20026;-94
2021/10/01 10:42:14;;;;;;;0.00;0.00;;;24.50;55.80;;;;;;4970329;28;20431;-94
2021/10/01 10:44:55;;;;;;;0.05;0.05;;;24.90;55.20;;;;;;4975119;28;20090;-92
2021/10/01 10:47:44;;;;;;;0.20;0.20;;;24.80;55.40;;;;;;4968271;28;20487;-92
2021/10/01 10:50:32;;;;;;;0.10;0.10;;;24.90;55.30;;;;;;4968024;28;20395;-92
2021/10/01 10:53:26;;;;;;;0.50;0.50;;;25.20;54.30;;;;;;4972974;28;20034;-93
2021/10/01 10:56:35;;;;;;;0.00;0.00;;;25.20;53.90;;;;;;4976326;28;20034;-93
2021/10/01 10:59:25;;;;;;;0.00;0.00;;;25.60;53.20;;;;;;4971770;28;20045;-94
2021/10/01 11:02:18;;;;;;;0.00;0.00;;;25.60;53.10;;;;;;4984614;28;20022;-94
2021/10/01 11:04:49;;;;;;;0.03;0.03;;;25.00;53.80;;;;;;4965827;28;20398;-94
2021/10/01 11:07:54;;;;;;;0.00;0.00;;;24.80;54.40;;;;;;4965495;28;20376;-93
2021/10/01 11:10:37;;;;;;;0.00;0.00;;;24.70;54.60;;;;;;4966932;28;20084;-93
2021/10/01 11:13:18;;;;;;;0.10;0.10;;;25.30;53.70;;;;;;4967743;28;20081;-93
2021/10/01 11:16:09;;;;;;;0.00;0.00;;;25.70;53.60;;;;;;4966928;28;20066;-93
2021/10/01 11:18:36;;;;;;;0.30;0.30;;;25.80;54.90;;;;;;4965706;28;20125;-92
2021/10/01 11:21:28;;;;;;;0.13;0.13;;;25.90;54.60;;;;;;4964463;28;20026;-92
2021/10/01 11:24:21;;;;;;;0.10;0.10;;;25.80;53.20;;;;;;4967329;28;20038;-92
2021/10/01 11:26:55;;;;;;;7.03;0.55;;;25.70;53.30;;;;;;4960099;28;20480;-92
2021/10/01 11:29:33;;;;;;;0.17;0.17;;;25.30;53.50;;;;;;4968888;28;20416;-92
2021/10/01 11:32:06;;;;;;;0.00;0.00;;;25.40;54.50;;;;;;4969606;28;20080;-92
2021/10/01 11:34:35;;;;;;;1.00;0.43;;;26.00;53.20;;;;;;4967701;28;20644;-93
2021/10/01 11:37:01;;;;;;;0.00;0.00;;;25.60;53.00;;;;;;4966104;28;20034;-93
2021/10/01 11:39:27;;;;;;;0.00;0.00;;;25.80;53.00;;;;;;4967453;28;20141;-93
2021/10/01 11:41:53;;;;;;;0.20;0.20;;;26.20;52.30;;;;;;4967327;28;20027;-92
2021/10/01 11:44:24;;;;;;;0.00;0.00;;;26.20;52.90;;;;;;4966967;28;20033;-93
2021/10/01 11:46:50;;;;;;;0.10;0.10;;;26.50;51.30;;;;;;4966973;28;20471;-93
2021/10/01 11:49:18;;;;;;;0.00;0.00;;;26.00;52.50;;;;;;4965435;28;20077;-92
2021/10/01 11:52:06;;;;;;;3.30;0.63;;;26.20;52.20;;;;;;4964792;28;20033;-93
2021/10/01 11:54:36;;;;;;;0.05;0.05;;;26.10;52.30;;;;;;4971794;28;20022;-93
2021/10/01 11:57:08;;;;;;;0.00;0.00;;;26.20;51.80;;;;;;4970964;28;20161;-92
2021/10/01 12:00:18;;;;;;;0.20;0.20;;;25.90;52.20;;;;;;4967248;28;20090;-94
2021/10/01 12:02:46;;;;;;;0.05;0.05;;;26.20;51.10;;;;;;4922592;28;20041;-92
2021/10/01 12:05:24;;;;;;;0.00;0.00;;;26.10;52.10;;;;;;4969108;28;20054;-93
2021/10/01 12:07:52;;;;;;;0.15;0.08;;;26.70;50.10;;;;;;4968593;28;20034;-93
2021/10/01 12:10:20;;;;;;;0.40;0.22;;;26.30;50.70;;;;;;4965526;28;20121;-93
2021/10/01 12:13:22;;;;;;;0.10;0.10;;;26.10;50.10;;;;;;4965126;28;20068;-93
2021/10/01 12:15:49;;;;;;;0.10;0.10;;;25.80;51.50;;;;;;4965267;28;20121;-93
2021/10/01 12:18:45;;;;;;;0.00;0.00;;;26.10;50.90;;;;;;4966989;28;20069;-93
2021/10/01 12:21:16;;;;;;;0.00;0.00;;;26.00;50.80;;;;;;4966724;28;20018;-93
2021/10/01 12:23:56;;;;;;;0.52;0.20;;;26.20;50.70;;;;;;4968350;28;20023;-94
2021/10/01 12:26:49;;;;;;;0.00;0.00;;;26.20;50.00;;;;;;4979851;28;20038;-93
2021/10/01 12:29:28;;;;;;;0.10;0.10;;;26.00;51.00;;;;;;4970650;28;20026;-93
2021/10/01 12:31:57;;;;;;;0.20;0.20;;;25.10;51.40;;;;;;4968894;28;20072;-93
2021/10/01 12:34:32;;;;;;;0.10;0.10;;;24.70;51.90;;;;;;4967349;28;20018;-93
2021/10/01 12:37:11;;;;;;;0.00;0.00;;;24.70;54.00;;;;;;4967193;28;20090;-93
2021/10/01 12:40:11;;;;;;;0.10;0.10;;;24.70;53.30;;;;;;4988364;28;20046;-93
2021/10/01 12:42:50;;;;;;;0.03;0.03;;;24.40;53.50;;;;;;4984495;28;20030;-93
2021/10/01 12:45:18;;;;;;;0.10;0.10;;;24.60;53.80;;;;;;4964885;28;20383;-93
2021/10/01 12:47:58;;;;;;;0.00;0.00;;;24.30;54.80;;;;;;4967850;28;20033;-92
2021/10/01 12:50:35;;;;;;;0.65;0.38;;;24.20;53.50;;;;;;4975607;28;20027;-94
2021/10/01 12:53:04;;;;;;;0.05;0.05;;;24.10;54.50;;;;;;4966956;28;20057;-91
2021/10/01 12:55:32;;;;;;;0.35;0.35;;;23.90;55.10;;;;;;4978177;28;20030;-91
2021/10/01 12:57:58;;;;;;;0.80;0.65;;;23.60;55.90;;;;;;4963886;28;20027;-92
2021/10/01 13:00:37;;;;;;;3.03;0.98;;;23.20;57.50;;;;;;4962857;28;20306;-92
2021/10/01 13:03:08;;;;;;;0.10;0.10;;;22.90;58.40;;;;;;4960945;28;20022;-91
2021/10/01 13:05:34;;;;;;;0.00;0.00;;;22.60;58.00;;;;;;4960528;28;20049;-92
2021/10/01 13:08:02;;;;;;;0.32;0.10;;;22.50;57.00;;;;;;4976577;28;20488;-91
2021/10/01 13:10:52;;;;;;;0.10;0.10;;;22.60;59.10;;;;;;4976827;28;20062;-90
2021/10/01 13:13:28;;;;;;;0.17;0.17;;;22.20;60.80;;;;;;4962664;28;20026;-92
2021/10/01 13:15:55;;;;;;;0.13;0.13;;;22.20;61.40;;;;;;4962401;28;20069;-92
2021/10/01 13:18:26;;;;;;;0.10;0.10;;;22.20;60.70;;;;;;4966253;28;20023;-93
2021/10/01 13:20:56;;;;;;;0.05;0.05;;;22.40;60.90;;;;;;4964092;28;20022;-93
2021/10/01 13:23:32;;;;;;;0.05;0.05;;;22.30;60.90;;;;;;4984859;28;20630;-93
2021/10/01 13:26:00;;;;;;;;;;;22.30;60.30;;;;;;4994068;28;20023;-93
2021/10/01 13:28:28;;;;;;;0.10;0.10;;;22.10;60.30;;;;;;4994658;23;20301;-76
2021/10/01 13:30:54;;;;;;;0.20;0.20;;;22.20;60.90;;;;;;4994779;28;20421;-75
2021/10/01 13:33:23;;;;;;;0.22;0.22;;;22.00;61.70;;;;;;5012511;28;20033;-76
2021/10/01 13:35:49;;;;;;;0.10;0.10;;;21.90;61.30;;;;;;4994503;28;20030;-76
2021/10/01 13:38:15;;;;;;;0.35;0.35;;;22.10;61.50;;;;;;4978339;28;20615;-76
2021/10/01 13:40:42;;;;;;;0.20;0.20;;;22.10;61.30;;;;;;4994909;28;20101;-75
2021/10/01 13:43:08;;;;;;;0.10;0.10;;;22.00;61.50;;;;;;4994819;28;20030;-76
2021/10/01 13:45:34;;;;;;;0.10;0.10;;;21.50;61.20;;;;;;5011990;28;20044;-75
2021/10/01 13:48:00;;;;;;;0.22;0.22;;;21.40;65.30;;;;;;4994564;28;20030;-75
2021/10/01 13:50:27;;;;;;;0.25;0.15;;;21.50;64.00;;;;;;4994767;28;20080;-75
2021/10/01 13:52:53;;;;;;;0.10;0.10;;;21.50;64.40;;;;;;4994718;28;20065;-76
2021/10/01 13:55:19;;;;;;;0.10;0.10;;;21.40;64.30;;;;;;5011938;28;20041;-76
2021/10/01 13:57:45;;;;;;;0.10;0.10;;;21.60;64.20;;;;;;5011934;28;20389;-75
2021/10/01 14:00:13;;;;;;;0.10;0.10;;;21.70;63.40;;;;;;5012085;28;20053;-75
2021/10/01 14:02:41;;;;;;;0.17;0.17;;;21.80;63.30;;;;;;4994480;28;20489;-75
2021/10/01 14:05:11;;;;;;;0.03;0.03;;;21.90;62.20;;;;;;4994292;28;20026;-75
2021/10/01 14:07:38;;;;;;;0.08;0.08;;;22.00;62.80;;;;;;5011690;28;20022;-75
2021/10/01 14:10:10;;;;;;;0.15;0.15;;;22.10;62.90;;;;;;4994338;28;20081;-75
2021/10/01 14:12:37;;;;;;;1.42;0.77;;;21.80;63.80;;;;;;5011984;28;20433;-75
2021/10/01 14:15:03;;;;;;;0.20;0.20;;;21.70;63.60;;;;;;4994097;28;20489;-76
2021/10/01 14:17:30;;;;;;;0.20;0.20;;;21.70;64.20;;;;;;4981172;28;20033;-75
2021/10/01 14:19:56;;;;;;;0.10;0.10;;;21.60;63.70;;;;;;4982230;28;20033;-76
2021/10/01 14:22:23;;;;;;;0.10;0.10;;;21.50;63.90;;;;;;4998573;28;20409;-75
2021/10/01 14:24:49;;;;;;;0.20;0.20;;;21.50;64.10;;;;;;5015707;28;20033;-75
2021/10/01 14:27:15;;;;;;;0.30;0.30;;;21.40;63.90;;;;;;4998042;28;20031;-77
2021/10/01 14:29:40;;;;;;;0.00;0.00;;;21.10;64.90;;;;;;4998036;28;20026;-75
2021/10/01 14:32:06;;;;;;;0.05;0.05;;;21.00;65.80;;;;;;5015950;28;20512;-75
2021/10/01 14:34:32;;;;;;;0.10;0.10;;;21.10;65.60;;;;;;5015716;28;20095;-75
2021/10/01 14:36:58;;;;;;;0.10;0.10;;;21.10;66.80;;;;;;4998138;28;20073;-75
2021/10/01 14:39:24;;;;;;;0.10;0.10;;;21.20;66.60;;;;;;5015708;28;20442;-75